Accueil
METAR-TAF:

METAR-TAF

Aéroports :

Aéroport de Magenta

Nouméa, Nouvelle-Calédonie

latitude: 22-15-30S, longitude: 166-28-22E, altitude: 3 m

METAR: absent

Heure: 21:58 (10:58 UTC)

Prévision

Le bulletin a été fait il y a 3 heures et 16 minutes, à 07:42 UTC
Prévision valable du 22 à 07 UTC au 23 à 06 UTC
Vent 8 kt de est/nord-est
Visibilité 10 km ou plus
Nuages fragmentés à une hauteur de 3000 ft
Nuages épars à une hauteur de 7500 ft

TAF: NWWM 220742Z 2207/2306 07008KT 9999 BKN030 SCT075

Observations et prévisions météorologiques de plus de 4000 aéroports (messages METAR et TAF).

Les stations disponibles sont représentées par des disques jaunes et rouges sur la carte.

Passer la souris dessus pour voir le nom de la station.

Cliquer dessus pour voir les observations et prévisions météorologiques.

Pour changer de carte: cliquez sur les boutons verts avec une croix noire pour zoomer, sur le bouton vert avec un tiret pour effectuer un zoom arrière, ou sur les flèches vertes pour les cartes adjacentes.


METAR-TAF: